sensor_id;sensor_type;location;lat;lon;timestamp;temperature;humidity
46283;DHT22;32017;43.700;11.820;2022-08-19T00:00:38;18.90;99.90
46283;DHT22;32017;43.700;11.820;2022-08-19T00:02:41;18.70;99.90
46283;DHT22;32017;43.700;11.820;2022-08-19T00:04:50;18.80;99.90
46283;DHT22;32017;43.700;11.820;2022-08-19T00:06:54;18.80;99.90
46283;DHT22;32017;43.700;11.820;2022-08-19T00:08:56;18.80;99.90
46283;DHT22;32017;43.700;11.820;2022-08-19T00:10:58;18.90;99.90
46283;DHT22;32017;43.700;11.820;2022-08-19T00:13:00;19.00;99.90
46283;DHT22;32017;43.700;11.820;2022-08-19T00:15:02;19.00;99.90
46283;DHT22;32017;43.700;11.820;2022-08-19T00:17:05;18.90;99.90
46283;DHT22;32017;43.700;11.820;2022-08-19T00:19:08;19.00;99.90
46283;DHT22;32017;43.700;11.820;2022-08-19T00:21:10;18.90;99.90
46283;DHT22;32017;43.700;11.820;2022-08-19T00:23:12;18.90;99.90
46283;DHT22;32017;43.700;11.820;2022-08-19T00:25:14;18.90;99.90
46283;DHT22;32017;43.700;11.820;2022-08-19T00:27:16;18.80;99.90
46283;DHT22;32017;43.700;11.820;2022-08-19T00:29:27;18.80;99.90
46283;DHT22;32017;43.700;11.820;2022-08-19T00:31:29;18.80;99.90
46283;DHT22;32017;43.700;11.820;2022-08-19T00:33:33;18.90;99.90
46283;DHT22;32017;43.700;11.820;2022-08-19T00:35:35;18.80;99.90
46283;DHT22;32017;43.700;11.820;2022-08-19T00:37:37;18.70;99.90
46283;DHT22;32017;43.700;11.820;2022-08-19T00:39:39;18.80;99.90
46283;DHT22;32017;43.700;11.820;2022-08-19T00:41:42;18.80;99.90
46283;DHT22;32017;43.700;11.820;2022-08-19T00:43:55;18.70;99.90
46283;DHT22;32017;43.700;11.820;2022-08-19T00:45:58;18.70;99.90
46283;DHT22;32017;43.700;11.820;2022-08-19T00:48:00;18.70;99.90
46283;DHT22;32017;43.700;11.820;2022-08-19T00:50:05;18.70;99.90
46283;DHT22;32017;43.700;11.820;2022-08-19T00:52:16;18.70;99.90
46283;DHT22;32017;43.700;11.820;2022-08-19T00:54:20;18.60;99.90
46283;DHT22;32017;43.700;11.820;2022-08-19T00:56:29;18.70;99.90
46283;DHT22;32017;43.700;11.820;2022-08-19T00:58:32;18.70;99.90
46283;DHT22;32017;43.700;11.820;2022-08-19T01:00:35;18.70;99.90
46283;DHT22;32017;43.700;11.820;2022-08-19T01:02:38;18.70;99.90
46283;DHT22;32017;43.700;11.820;2022-08-19T01:04:41;18.70;99.90
46283;DHT22;32017;43.700;11.820;2022-08-19T01:06:43;18.70;99.90
46283;DHT22;32017;43.700;11.820;2022-08-19T01:08:45;18.70;99.90
46283;DHT22;32017;43.700;11.820;2022-08-19T01:10:48;18.70;99.90
46283;DHT22;32017;43.700;11.820;2022-08-19T01:12:51;18.70;99.90
46283;DHT22;32017;43.700;11.820;2022-08-19T01:14:53;18.60;99.90
46283;DHT22;32017;43.700;11.820;2022-08-19T01:16:57;18.70;99.90
46283;DHT22;32017;43.700;11.820;2022-08-19T01:19:02;18.70;99.90
46283;DHT22;32017;43.700;11.820;2022-08-19T01:21:05;18.70;99.90
46283;DHT22;32017;43.700;11.820;2022-08-19T01:23:09;18.70;99.90
46283;DHT22;32017;43.700;11.820;2022-08-19T01:25:12;18.70;99.90
46283;DHT22;32017;43.700;11.820;2022-08-19T01:27:16;18.70;99.90
46283;DHT22;32017;43.700;11.820;2022-08-19T01:29:18;18.80;99.90
46283;DHT22;32017;43.700;11.820;2022-08-19T01:31:21;18.80;99.90
46283;DHT22;32017;43.700;11.820;2022-08-19T01:33:29;18.80;99.90
46283;DHT22;32017;43.700;11.820;2022-08-19T01:35:36;18.80;99.90
46283;DHT22;32017;43.700;11.820;2022-08-19T01:37:44;18.80;99.90
46283;DHT22;32017;43.700;11.820;2022-08-19T01:39:46;18.80;99.90
46283;DHT22;32017;43.700;11.820;2022-08-19T01:41:49;18.90;99.90
46283;DHT22;32017;43.700;11.820;2022-08-19T01:43:52;18.80;99.90
46283;DHT22;32017;43.700;11.820;2022-08-19T01:46:12;18.90;99.90
46283;DHT22;32017;43.700;11.820;2022-08-19T01:48:14;18.90;99.90
46283;DHT22;32017;43.700;11.820;2022-08-19T01:50:16;18.90;99.90
46283;DHT22;32017;43.700;11.820;2022-08-19T01:52:18;18.80;99.90
46283;DHT22;32017;43.700;11.820;2022-08-19T01:54:21;18.90;99.90
46283;DHT22;32017;43.700;11.820;2022-08-19T01:56:28;18.80;99.90
46283;DHT22;32017;43.700;11.820;2022-08-19T01:58:32;18.70;99.90
46283;DHT22;32017;43.700;11.820;2022-08-19T02:00:35;18.70;99.90
46283;DHT22;32017;43.700;11.820;2022-08-19T02:02:38;18.70;99.90
46283;DHT22;32017;43.700;11.820;2022-08-19T02:04:40;18.70;99.90
46283;DHT22;32017;43.700;11.820;2022-08-19T02:06:42;18.70;99.90
46283;DHT22;32017;43.700;11.820;2022-08-19T02:08:44;18.70;99.90
46283;DHT22;32017;43.700;11.820;2022-08-19T02:10:53;18.70;99.90
46283;DHT22;32017;43.700;11.820;2022-08-19T02:12:55;18.70;99.90
46283;DHT22;32017;43.700;11.820;2022-08-19T02:14:58;18.60;99.90
46283;DHT22;32017;43.700;11.820;2022-08-19T02:17:00;18.70;99.90
46283;DHT22;32017;43.700;11.820;2022-08-19T02:19:02;18.70;99.90
46283;DHT22;32017;43.700;11.820;2022-08-19T02:21:04;18.60;99.90
46283;DHT22;32017;43.700;11.820;2022-08-19T02:23:07;18.60;99.90
46283;DHT22;32017;43.700;11.820;2022-08-19T02:25:14;18.60;99.90
46283;DHT22;32017;43.700;11.820;2022-08-19T02:27:16;18.60;99.90
46283;DHT22;32017;43.700;11.820;2022-08-19T02:29:18;18.60;99.90
46283;DHT22;32017;43.700;11.820;2022-08-19T02:31:21;18.60;99.90
46283;DHT22;32017;43.700;11.820;2022-08-19T02:33:23;18.70;99.90
46283;DHT22;32017;43.700;11.820;2022-08-19T02:35:25;18.60;99.90
46283;DHT22;32017;43.700;11.820;2022-08-19T02:37:27;18.60;99.90
46283;DHT22;32017;43.700;11.820;2022-08-19T02:39:51;18.50;99.90
46283;DHT22;32017;43.700;11.820;2022-08-19T02:41:54;18.60;99.90
46283;DHT22;32017;43.700;11.820;2022-08-19T02:43:57;18.60;99.90
46283;DHT22;32017;43.700;11.820;2022-08-19T02:46:20;18.50;99.90
46283;DHT22;32017;43.700;11.820;2022-08-19T02:48:24;18.50;99.90
46283;DHT22;32017;43.700;11.820;2022-08-19T02:50:26;18.60;99.90
46283;DHT22;32017;43.700;11.820;2022-08-19T02:52:28;18.70;99.90
46283;DHT22;32017;43.700;11.820;2022-08-19T02:54:30;18.60;99.90
46283;DHT22;32017;43.700;11.820;2022-08-19T02:56:34;18.60;99.90
46283;DHT22;32017;43.700;11.820;2022-08-19T02:58:36;18.70;99.90
46283;DHT22;32017;43.700;11.820;2022-08-19T03:00:42;18.70;99.90
46283;DHT22;32017;43.700;11.820;2022-08-19T03:02:44;18.70;99.90
46283;DHT22;32017;43.700;11.820;2022-08-19T03:04:47;18.80;99.90
46283;DHT22;32017;43.700;11.820;2022-08-19T03:06:49;18.80;99.90
46283;DHT22;32017;43.700;11.820;2022-08-19T03:08:51;18.80;99.90
46283;DHT22;32017;43.700;11.820;2022-08-19T03:10:53;18.70;99.90
46283;DHT22;32017;43.700;11.820;2022-08-19T03:12:55;18.70;99.90
46283;DHT22;32017;43.700;11.820;2022-08-19T03:14:57;18.70;99.90
46283;DHT22;32017;43.700;11.820;2022-08-19T03:16:59;18.70;99.90
46283;DHT22;32017;43.700;11.820;2022-08-19T03:19:01;18.70;99.90
46283;DHT22;32017;43.700;11.820;2022-08-19T03:21:03;18.70;99.90
46283;DHT22;32017;43.700;11.820;2022-08-19T03:23:05;18.70;99.90
46283;DHT22;32017;43.700;11.820;2022-08-19T03:25:07;18.70;99.90
46283;DHT22;32017;43.700;11.820;2022-08-19T03:27:09;18.60;99.90
46283;DHT22;32017;43.700;11.820;2022-08-19T03:29:11;18.60;99.90
46283;DHT22;32017;43.700;11.820;2022-08-19T03:31:14;18.60;99.90
46283;DHT22;32017;43.700;11.820;2022-08-19T03:33:36;18.60;99.90
46283;DHT22;32017;43.700;11.820;2022-08-19T03:35:38;18.60;99.90
46283;DHT22;32017;43.700;11.820;2022-08-19T03:37:42;18.70;99.90
46283;DHT22;32017;43.700;11.820;2022-08-19T03:39:44;18.70;99.90
46283;DHT22;32017;43.700;11.820;2022-08-19T03:41:47;18.70;99.90
46283;DHT22;32017;43.700;11.820;2022-08-19T03:43:51;18.70;99.90
46283;DHT22;32017;43.700;11.820;2022-08-19T03:46:10;18.80;99.90
46283;DHT22;32017;43.700;11.820;2022-08-19T03:48:12;18.80;99.90
46283;DHT22;32017;43.700;11.820;2022-08-19T03:50:15;18.80;99.90
46283;DHT22;32017;43.700;11.820;2022-08-19T03:52:17;18.90;99.90
46283;DHT22;32017;43.700;11.820;2022-08-19T03:54:21;18.90;99.90
46283;DHT22;32017;43.700;11.820;2022-08-19T03:56:24;18.90;99.90
46283;DHT22;32017;43.700;11.820;2022-08-19T03:58:28;18.90;99.90
46283;DHT22;32017;43.700;11.820;2022-08-19T04:00:30;19.00;99.90
46283;DHT22;32017;43.700;11.820;2022-08-19T04:02:33;19.00;99.90
46283;DHT22;32017;43.700;11.820;2022-08-19T04:04:36;19.00;99.90
46283;DHT22;32017;43.700;11.820;2022-08-19T04:06:39;18.90;99.90
46283;DHT22;32017;43.700;11.820;2022-08-19T04:08:41;18.90;99.90
46283;DHT22;32017;43.700;11.820;2022-08-19T04:10:44;19.00;99.90
46283;DHT22;32017;43.700;11.820;2022-08-19T04:12:46;19.00;99.90
46283;DHT22;32017;43.700;11.820;2022-08-19T04:14:48;19.10;99.90
46283;DHT22;32017;43.700;11.820;2022-08-19T04:16:51;19.10;99.90
46283;DHT22;32017;43.700;11.820;2022-08-19T04:18:53;19.00;99.90
46283;DHT22;32017;43.700;11.820;2022-08-19T04:20:55;18.90;99.90
46283;DHT22;32017;43.700;11.820;2022-08-19T04:22:58;18.90;99.90
46283;DHT22;32017;43.700;11.820;2022-08-19T04:25:00;18.80;99.90
46283;DHT22;32017;43.700;11.820;2022-08-19T04:27:02;18.80;99.90
46283;DHT22;32017;43.700;11.820;2022-08-19T04:29:09;18.80;99.90
46283;DHT22;32017;43.700;11.820;2022-08-19T04:31:18;18.80;99.90
46283;DHT22;32017;43.700;11.820;2022-08-19T04:33:21;18.80;99.90
46283;DHT22;32017;43.700;11.820;2022-08-19T04:35:27;18.80;99.90
46283;DHT22;32017;43.700;11.820;2022-08-19T04:37:29;18.80;99.90
46283;DHT22;32017;43.700;11.820;2022-08-19T04:39:36;18.80;99.90
46283;DHT22;32017;43.700;11.820;2022-08-19T04:41:59;18.80;99.90
46283;DHT22;32017;43.700;11.820;2022-08-19T04:44:19;18.80;99.90
46283;DHT22;32017;43.700;11.820;2022-08-19T04:46:21;18.80;99.90
46283;DHT22;32017;43.700;11.820;2022-08-19T04:48:40;18.80;99.90
46283;DHT22;32017;43.700;11.820;2022-08-19T04:50:43;18.80;99.90
46283;DHT22;32017;43.700;11.820;2022-08-19T04:52:46;18.80;99.90
46283;DHT22;32017;43.700;11.820;2022-08-19T04:54:48;18.80;99.90
46283;DHT22;32017;43.700;11.820;2022-08-19T04:56:50;18.80;99.90
46283;DHT22;32017;43.700;11.820;2022-08-19T04:58:54;18.80;99.90
46283;DHT22;32017;43.700;11.820;2022-08-19T05:00:56;18.80;99.90
46283;DHT22;32017;43.700;11.820;2022-08-19T05:02:58;18.80;99.90
46283;DHT22;32017;43.700;11.820;2022-08-19T05:05:00;18.80;99.90
46283;DHT22;32017;43.700;11.820;2022-08-19T05:07:02;18.80;99.90
46283;DHT22;32017;43.700;11.820;2022-08-19T05:09:04;18.80;99.90
46283;DHT22;32017;43.700;11.820;2022-08-19T05:11:17;18.80;99.90
46283;DHT22;32017;43.700;11.820;2022-08-19T05:13:20;18.80;99.90
46283;DHT22;32017;43.700;11.820;2022-08-19T05:15:22;18.80;99.90
46283;DHT22;32017;43.700;11.820;2022-08-19T05:17:24;18.80;99.90
46283;DHT22;32017;43.700;11.820;2022-08-19T05:19:28;18.80;99.90
46283;DHT22;32017;43.700;11.820;2022-08-19T05:21:49;18.90;99.90
46283;DHT22;32017;43.700;11.820;2022-08-19T05:24:09;18.90;99.90
46283;DHT22;32017;43.700;11.820;2022-08-19T05:26:11;18.90;99.90
46283;DHT22;32017;43.700;11.820;2022-08-19T05:28:14;18.90;99.90
46283;DHT22;32017;43.700;11.820;2022-08-19T05:30:16;19.00;99.90
46283;DHT22;32017;43.700;11.820;2022-08-19T05:32:18;19.00;99.90
46283;DHT22;32017;43.700;11.820;2022-08-19T05:34:21;19.10;99.90
46283;DHT22;32017;43.700;11.820;2022-08-19T05:36:27;19.20;99.90
46283;DHT22;32017;43.700;11.820;2022-08-19T05:38:29;19.00;99.90
46283;DHT22;32017;43.700;11.820;2022-08-19T05:40:31;19.00;99.90
46283;DHT22;32017;43.700;11.820;2022-08-19T05:42:35;19.10;99.90
46283;DHT22;32017;43.700;11.820;2022-08-19T05:44:38;19.10;99.90
46283;DHT22;32017;43.700;11.820;2022-08-19T05:46:42;19.10;99.90
46283;DHT22;32017;43.700;11.820;2022-08-19T05:48:45;19.00;99.90
46283;DHT22;32017;43.700;11.820;2022-08-19T05:50:47;19.10;99.90
46283;DHT22;32017;43.700;11.820;2022-08-19T05:52:52;19.20;99.90
46283;DHT22;32017;43.700;11.820;2022-08-19T05:54:54;19.20;99.90
46283;DHT22;32017;43.700;11.820;2022-08-19T05:56:57;19.30;99.90
46283;DHT22;32017;43.700;11.820;2022-08-19T05:58:59;19.30;99.90
46283;DHT22;32017;43.700;11.820;2022-08-19T06:01:02;19.30;99.90
46283;DHT22;32017;43.700;11.820;2022-08-19T06:03:06;19.30;99.90
46283;DHT22;32017;43.700;11.820;2022-08-19T06:05:13;19.30;99.90
46283;DHT22;32017;43.700;11.820;2022-08-19T06:07:15;19.30;99.90
46283;DHT22;32017;43.700;11.820;2022-08-19T06:09:18;19.30;99.90
46283;DHT22;32017;43.700;11.820;2022-08-19T06:11:21;19.30;99.90
46283;DHT22;32017;43.700;11.820;2022-08-19T06:13:24;19.30;99.90
46283;DHT22;32017;43.700;11.820;2022-08-19T06:15:28;19.40;99.90
46283;DHT22;32017;43.700;11.820;2022-08-19T06:17:30;19.40;99.90
46283;DHT22;32017;43.700;11.820;2022-08-19T06:19:32;19.50;99.90
46283;DHT22;32017;43.700;11.820;2022-08-19T06:21:35;19.50;99.90
46283;DHT22;32017;43.700;11.820;2022-08-19T06:23:38;19.50;99.90
46283;DHT22;32017;43.700;11.820;2022-08-19T06:25:40;19.50;99.90
46283;DHT22;32017;43.700;11.820;2022-08-19T06:27:43;19.60;99.90
46283;DHT22;32017;43.700;11.820;2022-08-19T06:30:05;19.70;99.90
46283;DHT22;32017;43.700;11.820;2022-08-19T06:32:07;19.70;99.90
46283;DHT22;32017;43.700;11.820;2022-08-19T06:34:09;19.70;99.90
46283;DHT22;32017;43.700;11.820;2022-08-19T06:36:21;19.80;99.90
46283;DHT22;32017;43.700;11.820;2022-08-19T06:38:25;19.90;99.90
46283;DHT22;32017;43.700;11.820;2022-08-19T06:40:27;19.80;99.90
46283;DHT22;32017;43.700;11.820;2022-08-19T06:42:29;19.80;99.90
46283;DHT22;32017;43.700;11.820;2022-08-19T06:44:33;19.80;99.90
46283;DHT22;32017;43.700;11.820;2022-08-19T06:46:36;19.90;99.90
46283;DHT22;32017;43.700;11.820;2022-08-19T06:48:38;20.00;99.90
46283;DHT22;32017;43.700;11.820;2022-08-19T06:50:46;19.90;99.90
46283;DHT22;32017;43.700;11.820;2022-08-19T06:52:48;19.90;99.90
46283;DHT22;32017;43.700;11.820;2022-08-19T06:54:50;19.90;99.90
46283;DHT22;32017;43.700;11.820;2022-08-19T06:57:00;20.10;99.90
46283;DHT22;32017;43.700;11.820;2022-08-19T06:59:07;20.00;99.90
46283;DHT22;32017;43.700;11.820;2022-08-19T07:01:09;20.10;99.90
46283;DHT22;32017;43.700;11.820;2022-08-19T07:03:11;20.00;99.90
46283;DHT22;32017;43.700;11.820;2022-08-19T07:05:14;20.10;99.90
46283;DHT22;32017;43.700;11.820;2022-08-19T07:07:16;20.10;99.90
46283;DHT22;32017;43.700;11.820;2022-08-19T07:09:21;20.10;99.90
46283;DHT22;32017;43.700;11.820;2022-08-19T07:11:23;20.20;99.90
46283;DHT22;32017;43.700;11.820;2022-08-19T07:13:25;20.30;99.90
46283;DHT22;32017;43.700;11.820;2022-08-19T07:15:27;20.60;99.90
46283;DHT22;32017;43.700;11.820;2022-08-19T07:17:29;21.00;99.90
46283;DHT22;32017;43.700;11.820;2022-08-19T07:19:31;21.00;99.90
46283;DHT22;32017;43.700;11.820;2022-08-19T07:21:33;21.10;99.90
46283;DHT22;32017;43.700;11.820;2022-08-19T07:23:38;21.30;99.90
46283;DHT22;32017;43.700;11.820;2022-08-19T07:25:40;21.40;99.90
46283;DHT22;32017;43.700;11.820;2022-08-19T07:27:42;21.30;99.90
46283;DHT22;32017;43.700;11.820;2022-08-19T07:29:46;21.40;99.90
46283;DHT22;32017;43.700;11.820;2022-08-19T07:31:52;21.40;99.90
46283;DHT22;32017;43.700;11.820;2022-08-19T07:33:57;21.50;99.90
46283;DHT22;32017;43.700;11.820;2022-08-19T07:35:59;21.70;99.90
46283;DHT22;32017;43.700;11.820;2022-08-19T07:38:01;21.90;99.90
46283;DHT22;32017;43.700;11.820;2022-08-19T07:40:06;21.70;99.90
46283;DHT22;32017;43.700;11.820;2022-08-19T07:42:09;21.60;99.90
46283;DHT22;32017;43.700;11.820;2022-08-19T07:44:11;21.70;99.90
46283;DHT22;32017;43.700;11.820;2022-08-19T07:46:13;21.80;99.90
46283;DHT22;32017;43.700;11.820;2022-08-19T07:48:16;21.80;99.90
46283;DHT22;32017;43.700;11.820;2022-08-19T07:50:18;21.70;99.90
46283;DHT22;32017;43.700;11.820;2022-08-19T07:52:21;21.70;99.90
46283;DHT22;32017;43.700;11.820;2022-08-19T07:54:24;21.70;99.90
46283;DHT22;32017;43.700;11.820;2022-08-19T07:56:26;21.50;99.90
46283;DHT22;32017;43.700;11.820;2022-08-19T07:58:28;21.40;99.90
46283;DHT22;32017;43.700;11.820;2022-08-19T08:00:31;21.70;99.90
46283;DHT22;32017;43.700;11.820;2022-08-19T08:02:33;22.10;99.90
46283;DHT22;32017;43.700;11.820;2022-08-19T08:04:35;22.20;99.90
46283;DHT22;32017;43.700;11.820;2022-08-19T08:06:55;22.10;99.90
46283;DHT22;32017;43.700;11.820;2022-08-19T08:09:17;22.10;99.90
46283;DHT22;32017;43.700;11.820;2022-08-19T08:11:23;22.20;99.90
46283;DHT22;32017;43.700;11.820;2022-08-19T08:13:25;22.20;99.90
46283;DHT22;32017;43.700;11.820;2022-08-19T08:15:28;22.20;99.90
46283;DHT22;32017;43.700;11.820;2022-08-19T08:17:30;22.00;99.90
46283;DHT22;32017;43.700;11.820;2022-08-19T08:19:49;22.10;99.90
46283;DHT22;32017;43.700;11.820;2022-08-19T08:21:53;22.10;99.90
46283;DHT22;32017;43.700;11.820;2022-08-19T08:23:55;22.20;99.90
46283;DHT22;32017;43.700;11.820;2022-08-19T08:25:57;22.00;99.90
46283;DHT22;32017;43.700;11.820;2022-08-19T08:27:59;21.90;99.90
46283;DHT22;32017;43.700;11.820;2022-08-19T08:30:02;22.00;99.90
46283;DHT22;32017;43.700;11.820;2022-08-19T08:32:04;21.80;99.90
46283;DHT22;32017;43.700;11.820;2022-08-19T08:34:16;22.10;99.90
46283;DHT22;32017;43.700;11.820;2022-08-19T08:36:18;22.40;99.90
46283;DHT22;32017;43.700;11.820;2022-08-19T08:38:20;22.50;99.90
46283;DHT22;32017;43.700;11.820;2022-08-19T08:40:57;22.50;99.90
46283;DHT22;32017;43.700;11.820;2022-08-19T08:43:37;22.70;99.90
46283;DHT22;32017;43.700;11.820;2022-08-19T08:45:14;22.80;99.90
46283;DHT22;32017;43.700;11.820;2022-08-19T08:47:18;22.90;99.90
46283;DHT22;32017;43.700;11.820;2022-08-19T08:49:32;22.80;99.90
46283;DHT22;32017;43.700;11.820;2022-08-19T08:51:37;22.90;99.90
46283;DHT22;32017;43.700;11.820;2022-08-19T08:53:43;23.20;99.90
46283;DHT22;32017;43.700;11.820;2022-08-19T08:55:46;23.50;99.90
46283;DHT22;32017;43.700;11.820;2022-08-19T08:59:52;23.40;99.90
46283;DHT22;32017;43.700;11.820;2022-08-19T09:01:55;23.50;99.90
46283;DHT22;32017;43.700;11.820;2022-08-19T09:03:57;23.50;99.90
46283;DHT22;32017;43.700;11.820;2022-08-19T09:06:04;23.60;99.90
46283;DHT22;32017;43.700;11.820;2022-08-19T09:08:48;23.70;99.90
46283;DHT22;32017;43.700;11.820;2022-08-19T09:10:45;23.70;99.90
46283;DHT22;32017;43.700;11.820;2022-08-19T09:12:59;23.60;99.90
46283;DHT22;32017;43.700;11.820;2022-08-19T09:15:04;23.60;99.90
46283;DHT22;32017;43.700;11.820;2022-08-19T09:17:09;23.70;99.90
46283;DHT22;32017;43.700;11.820;2022-08-19T09:19:11;23.50;99.90
46283;DHT22;32017;43.700;11.820;2022-08-19T09:21:14;23.50;99.90
46283;DHT22;32017;43.700;11.820;2022-08-19T09:23:16;23.40;99.90
46283;DHT22;32017;43.700;11.820;2022-08-19T09:25:19;23.40;99.90
46283;DHT22;32017;43.700;11.820;2022-08-19T09:27:25;23.50;99.90
46283;DHT22;32017;43.700;11.820;2022-08-19T09:29:43;23.60;99.90
46283;DHT22;32017;43.700;11.820;2022-08-19T09:31:46;23.80;99.90
46283;DHT22;32017;43.700;11.820;2022-08-19T09:33:48;24.00;99.90
46283;DHT22;32017;43.700;11.820;2022-08-19T09:35:50;24.30;99.90
46283;DHT22;32017;43.700;11.820;2022-08-19T09:38:03;24.30;99.90
46283;DHT22;32017;43.700;11.820;2022-08-19T09:40:05;24.20;99.90
46283;DHT22;32017;43.700;11.820;2022-08-19T09:42:08;24.00;99.90
46283;DHT22;32017;43.700;11.820;2022-08-19T09:44:17;24.00;99.90
46283;DHT22;32017;43.700;11.820;2022-08-19T09:46:19;24.10;99.90
46283;DHT22;32017;43.700;11.820;2022-08-19T09:48:22;24.00;99.90
46283;DHT22;32017;43.700;11.820;2022-08-19T09:50:24;23.80;99.90
46283;DHT22;32017;43.700;11.820;2022-08-19T09:52:26;24.00;99.90
46283;DHT22;32017;43.700;11.820;2022-08-19T09:54:34;24.30;99.90
46283;DHT22;32017;43.700;11.820;2022-08-19T09:56:36;24.00;99.90
46283;DHT22;32017;43.700;11.820;2022-08-19T09:58:38;23.80;99.90
46283;DHT22;32017;43.700;11.820;2022-08-19T10:00:41;23.80;99.90
46283;DHT22;32017;43.700;11.820;2022-08-19T10:02:43;23.80;99.90
46283;DHT22;32017;43.700;11.820;2022-08-19T10:04:46;23.70;99.90
46283;DHT22;32017;43.700;11.820;2022-08-19T10:07:06;23.60;99.90
46283;DHT22;32017;43.700;11.820;2022-08-19T10:09:09;23.80;99.90
46283;DHT22;32017;43.700;11.820;2022-08-19T10:11:12;24.00;99.90
46283;DHT22;32017;43.700;11.820;2022-08-19T10:13:30;23.90;99.90
46283;DHT22;32017;43.700;11.820;2022-08-19T10:15:32;24.10;99.90
46283;DHT22;32017;43.700;11.820;2022-08-19T10:17:48;24.00;99.90
46283;DHT22;32017;43.700;11.820;2022-08-19T10:19:56;24.00;99.90
46283;DHT22;32017;43.700;11.820;2022-08-19T10:21:57;23.80;99.90
46283;DHT22;32017;43.700;11.820;2022-08-19T10:24:01;23.90;99.90
46283;DHT22;32017;43.700;11.820;2022-08-19T10:26:06;24.00;99.90
46283;DHT22;32017;43.700;11.820;2022-08-19T10:28:08;23.60;99.90
46283;DHT22;32017;43.700;11.820;2022-08-19T10:30:13;23.40;99.90
46283;DHT22;32017;43.700;11.820;2022-08-19T10:32:15;23.50;99.90
46283;DHT22;32017;43.700;11.820;2022-08-19T10:34:17;23.40;99.90
46283;DHT22;32017;43.700;11.820;2022-08-19T10:36:29;23.30;99.90
46283;DHT22;32017;43.700;11.820;2022-08-19T10:38:31;23.20;99.90
46283;DHT22;32017;43.700;11.820;2022-08-19T10:40:35;23.20;99.90
46283;DHT22;32017;43.700;11.820;2022-08-19T10:42:37;23.00;99.90
46283;DHT22;32017;43.700;11.820;2022-08-19T10:44:42;23.00;99.90
46283;DHT22;32017;43.700;11.820;2022-08-19T10:46:44;23.00;99.90
46283;DHT22;32017;43.700;11.820;2022-08-19T10:48:49;22.90;99.90
46283;DHT22;32017;43.700;11.820;2022-08-19T10:50:51;23.10;99.90
46283;DHT22;32017;43.700;11.820;2022-08-19T10:53:12;23.20;99.90
46283;DHT22;32017;43.700;11.820;2022-08-19T10:55:15;23.10;99.90
46283;DHT22;32017;43.700;11.820;2022-08-19T10:57:36;23.00;99.90
46283;DHT22;32017;43.700;11.820;2022-08-19T10:59:58;22.80;99.90
46283;DHT22;32017;43.700;11.820;2022-08-19T11:02:00;22.70;99.90
46283;DHT22;32017;43.700;11.820;2022-08-19T11:04:05;22.80;99.90
46283;DHT22;32017;43.700;11.820;2022-08-19T11:06:10;22.70;99.90
46283;DHT22;32017;43.700;11.820;2022-08-19T11:08:12;22.80;99.90
46283;DHT22;32017;43.700;11.820;2022-08-19T11:10:24;22.80;99.90
46283;DHT22;32017;43.700;11.820;2022-08-19T11:12:26;22.90;99.90
46283;DHT22;32017;43.700;11.820;2022-08-19T11:14:29;23.00;99.90
46283;DHT22;32017;43.700;11.820;2022-08-19T11:16:33;23.10;99.90
46283;DHT22;32017;43.700;11.820;2022-08-19T11:18:39;23.10;99.90
46283;DHT22;32017;43.700;11.820;2022-08-19T11:20:41;23.00;99.90
46283;DHT22;32017;43.700;11.820;2022-08-19T11:22:44;23.00;99.90
46283;DHT22;32017;43.700;11.820;2022-08-19T11:24:45;22.90;99.90
46283;DHT22;32017;43.700;11.820;2022-08-19T11:26:48;22.40;99.90
46283;DHT22;32017;43.700;11.820;2022-08-19T11:28:51;21.30;99.90
46283;DHT22;32017;43.700;11.820;2022-08-19T11:30:56;20.30;99.90
46283;DHT22;32017;43.700;11.820;2022-08-19T11:32:58;20.00;99.90
46283;DHT22;32017;43.700;11.820;2022-08-19T11:35:02;19.80;99.90
46283;DHT22;32017;43.700;11.820;2022-08-19T11:37:04;19.80;99.90
46283;DHT22;32017;43.700;11.820;2022-08-19T11:39:10;19.00;99.90
46283;DHT22;32017;43.700;11.820;2022-08-19T11:41:13;19.30;99.90
46283;DHT22;32017;43.700;11.820;2022-08-19T11:43:15;19.50;99.90
46283;DHT22;32017;43.700;11.820;2022-08-19T11:45:17;19.20;99.90
46283;DHT22;32017;43.700;11.820;2022-08-19T11:47:19;19.10;99.90
46283;DHT22;32017;43.700;11.820;2022-08-19T11:49:22;18.90;99.90
46283;DHT22;32017;43.700;11.820;2022-08-19T11:51:24;18.90;99.90
46283;DHT22;32017;43.700;11.820;2022-08-19T11:53:26;18.80;99.90
46283;DHT22;32017;43.700;11.820;2022-08-19T11:55:28;18.60;99.90
46283;DHT22;32017;43.700;11.820;2022-08-19T11:57:30;18.60;99.90
46283;DHT22;32017;43.700;11.820;2022-08-19T11:59:32;18.80;99.90
46283;DHT22;32017;43.700;11.820;2022-08-19T12:01:36;18.80;99.90
46283;DHT22;32017;43.700;11.820;2022-08-19T12:03:38;19.00;99.90
46283;DHT22;32017;43.700;11.820;2022-08-19T12:05:41;19.00;99.90
46283;DHT22;32017;43.700;11.820;2022-08-19T12:07:43;18.90;99.90
46283;DHT22;32017;43.700;11.820;2022-08-19T12:09:46;18.80;99.90
46283;DHT22;32017;43.700;11.820;2022-08-19T12:11:49;18.70;99.90
46283;DHT22;32017;43.700;11.820;2022-08-19T12:13:52;18.70;99.90
46283;DHT22;32017;43.700;11.820;2022-08-19T12:15:55;18.60;99.90
46283;DHT22;32017;43.700;11.820;2022-08-19T12:17:57;18.60;99.90
46283;DHT22;32017;43.700;11.820;2022-08-19T12:19:59;18.70;99.90
46283;DHT22;32017;43.700;11.820;2022-08-19T12:22:01;18.70;99.90
46283;DHT22;32017;43.700;11.820;2022-08-19T12:24:05;18.70;99.90
46283;DHT22;32017;43.700;11.820;2022-08-19T12:26:08;18.70;99.90
46283;DHT22;32017;43.700;11.820;2022-08-19T12:28:11;18.70;99.90
46283;DHT22;32017;43.700;11.820;2022-08-19T12:30:13;18.70;99.90
46283;DHT22;32017;43.700;11.820;2022-08-19T12:32:15;18.80;99.90
46283;DHT22;32017;43.700;11.820;2022-08-19T12:34:18;18.90;99.90
46283;DHT22;32017;43.700;11.820;2022-08-19T12:36:22;19.00;99.90
46283;DHT22;32017;43.700;11.820;2022-08-19T12:38:24;18.90;99.90
46283;DHT22;32017;43.700;11.820;2022-08-19T12:40:26;18.90;99.90
46283;DHT22;32017;43.700;11.820;2022-08-19T12:42:28;18.70;99.90
46283;DHT22;32017;43.700;11.820;2022-08-19T12:44:32;18.70;99.90
46283;DHT22;32017;43.700;11.820;2022-08-19T12:46:34;18.60;99.90
46283;DHT22;32017;43.700;11.820;2022-08-19T12:48:36;18.70;99.90
46283;DHT22;32017;43.700;11.820;2022-08-19T12:50:41;18.70;99.90
46283;DHT22;32017;43.700;11.820;2022-08-19T12:52:44;18.70;99.90
46283;DHT22;32017;43.700;11.820;2022-08-19T12:54:46;18.70;99.90